sensor_id;sensor_type;location;lat;lon;timestamp;P1;durP1;ratioP1;P2;durP2;ratioP2
74245;SDS011;62601;51.044;13.788;2023-08-20T00:01:36;15.37;;;14.10;;
74245;SDS011;62601;51.044;13.788;2023-08-20T00:03:56;16.17;;;14.87;;
74245;SDS011;62601;51.044;13.788;2023-08-20T00:06:16;14.33;;;13.13;;
74245;SDS011;62601;51.044;13.788;2023-08-20T00:08:36;16.40;;;14.73;;
74245;SDS011;62601;51.044;13.788;2023-08-20T00:10:57;14.20;;;13.10;;
74245;SDS011;62601;51.044;13.788;2023-08-20T00:13:17;15.17;;;14.03;;
74245;SDS011;62601;51.044;13.788;2023-08-20T00:15:37;15.40;;;14.10;;
74245;SDS011;62601;51.044;13.788;2023-08-20T00:17:57;15.00;;;13.50;;
74245;SDS011;62601;51.044;13.788;2023-08-20T00:20:17;15.80;;;14.17;;
74245;SDS011;62601;51.044;13.788;2023-08-20T00:22:41;16.00;;;14.60;;
74245;SDS011;62601;51.044;13.788;2023-08-20T00:25:01;14.33;;;13.13;;
74245;SDS011;62601;51.044;13.788;2023-08-20T00:27:21;14.70;;;13.60;;
74245;SDS011;62601;51.044;13.788;2023-08-20T00:29:42;15.83;;;14.43;;
74245;SDS011;62601;51.044;13.788;2023-08-20T00:32:02;14.70;;;13.33;;
74245;SDS011;62601;51.044;13.788;2023-08-20T00:34:22;15.70;;;14.50;;
74245;SDS011;62601;51.044;13.788;2023-08-20T00:36:42;14.17;;;12.77;;
74245;SDS011;62601;51.044;13.788;2023-08-20T00:39:02;16.00;;;14.70;;
74245;SDS011;62601;51.044;13.788;2023-08-20T00:41:22;15.30;;;14.10;;
74245;SDS011;62601;51.044;13.788;2023-08-20T00:43:42;14.60;;;13.40;;
74245;SDS011;62601;51.044;13.788;2023-08-20T00:46:02;14.93;;;13.53;;
74245;SDS011;62601;51.044;13.788;2023-08-20T00:48:23;14.77;;;13.37;;
74245;SDS011;62601;51.044;13.788;2023-08-20T00:50:43;14.43;;;13.33;;
74245;SDS011;62601;51.044;13.788;2023-08-20T00:53:04;14.83;;;13.63;;
74245;SDS011;62601;51.044;13.788;2023-08-20T00:55:24;14.47;;;13.07;;
74245;SDS011;62601;51.044;13.788;2023-08-20T00:57:44;14.97;;;13.77;;
74245;SDS011;62601;51.044;13.788;2023-08-20T01:00:04;14.47;;;13.27;;
74245;SDS011;62601;51.044;13.788;2023-08-20T01:02:25;14.43;;;13.23;;
74245;SDS011;62601;51.044;13.788;2023-08-20T01:04:45;15.23;;;13.77;;
74245;SDS011;62601;51.044;13.788;2023-08-20T01:09:37;13.77;;;12.60;;
74245;SDS011;62601;51.044;13.788;2023-08-20T01:12:00;14.00;;;12.63;;
74245;SDS011;62601;51.044;13.788;2023-08-20T01:14:22;14.80;;;13.53;;
74245;SDS011;62601;51.044;13.788;2023-08-20T01:16:42;15.27;;;14.00;;
74245;SDS011;62601;51.044;13.788;2023-08-20T01:19:02;15.40;;;13.83;;
74245;SDS011;62601;51.044;13.788;2023-08-20T01:21:30;14.47;;;13.37;;
74245;SDS011;62601;51.044;13.788;2023-08-20T01:23:56;15.50;;;14.00;;
74245;SDS011;62601;51.044;13.788;2023-08-20T01:29:00;15.37;;;13.87;;
74245;SDS011;62601;51.044;13.788;2023-08-20T01:31:20;15.53;;;13.67;;
74245;SDS011;62601;51.044;13.788;2023-08-20T01:33:40;15.80;;;14.40;;
74245;SDS011;62601;51.044;13.788;2023-08-20T01:36:00;14.23;;;12.90;;
74245;SDS011;62601;51.044;13.788;2023-08-20T01:38:21;15.90;;;14.30;;
74245;SDS011;62601;51.044;13.788;2023-08-20T01:40:41;14.43;;;13.07;;
74245;SDS011;62601;51.044;13.788;2023-08-20T01:43:01;15.87;;;14.57;;
74245;SDS011;62601;51.044;13.788;2023-08-20T01:45:21;16.07;;;14.67;;
74245;SDS011;62601;51.044;13.788;2023-08-20T01:47:41;16.70;;;15.20;;
74245;SDS011;62601;51.044;13.788;2023-08-20T01:50:02;15.10;;;13.60;;
74245;SDS011;62601;51.044;13.788;2023-08-20T01:52:22;16.03;;;13.77;;
74245;SDS011;62601;51.044;13.788;2023-08-20T01:54:42;14.70;;;13.47;;
74245;SDS011;62601;51.044;13.788;2023-08-20T01:57:02;14.57;;;13.40;;
74245;SDS011;62601;51.044;13.788;2023-08-20T01:59:22;15.30;;;14.00;;
74245;SDS011;62601;51.044;13.788;2023-08-20T02:01:42;14.03;;;12.93;;
74245;SDS011;62601;51.044;13.788;2023-08-20T02:04:02;15.00;;;13.83;;
74245;SDS011;62601;51.044;13.788;2023-08-20T02:06:23;15.23;;;12.70;;
74245;SDS011;62601;51.044;13.788;2023-08-20T02:08:43;14.07;;;12.70;;
74245;SDS011;62601;51.044;13.788;2023-08-20T02:11:03;14.70;;;13.60;;
74245;SDS011;62601;51.044;13.788;2023-08-20T02:13:23;14.10;;;13.00;;
74245;SDS011;62601;51.044;13.788;2023-08-20T02:15:43;15.43;;;14.20;;
74245;SDS011;62601;51.044;13.788;2023-08-20T02:18:04;14.07;;;12.77;;
74245;SDS011;62601;51.044;13.788;2023-08-20T02:20:24;13.97;;;12.77;;
74245;SDS011;62601;51.044;13.788;2023-08-20T02:22:44;13.80;;;12.70;;
74245;SDS011;62601;51.044;13.788;2023-08-20T02:25:04;14.40;;;13.20;;
74245;SDS011;62601;51.044;13.788;2023-08-20T02:27:24;14.87;;;13.57;;
74245;SDS011;62601;51.044;13.788;2023-08-20T02:29:44;14.27;;;12.83;;
74245;SDS011;62601;51.044;13.788;2023-08-20T02:32:04;14.00;;;12.90;;
74245;SDS011;62601;51.044;13.788;2023-08-20T02:34:25;14.33;;;12.93;;
74245;SDS011;62601;51.044;13.788;2023-08-20T02:36:45;15.80;;;14.50;;
74245;SDS011;62601;51.044;13.788;2023-08-20T02:39:05;13.80;;;12.57;;
74245;SDS011;62601;51.044;13.788;2023-08-20T02:41:25;15.57;;;14.27;;
74245;SDS011;62601;51.044;13.788;2023-08-20T02:43:45;14.43;;;13.23;;
74245;SDS011;62601;51.044;13.788;2023-08-20T02:46:05;14.03;;;12.90;;
74245;SDS011;62601;51.044;13.788;2023-08-20T02:48:25;14.93;;;13.70;;
74245;SDS011;62601;51.044;13.788;2023-08-20T02:50:46;14.60;;;13.43;;
74245;SDS011;62601;51.044;13.788;2023-08-20T02:53:06;15.40;;;14.10;;
74245;SDS011;62601;51.044;13.788;2023-08-20T02:55:30;15.93;;;14.57;;
74245;SDS011;62601;51.044;13.788;2023-08-20T02:57:50;13.97;;;12.87;;
74245;SDS011;62601;51.044;13.788;2023-08-20T03:00:10;14.23;;;13.03;;
74245;SDS011;62601;51.044;13.788;2023-08-20T03:02:31;15.30;;;14.10;;
74245;SDS011;62601;51.044;13.788;2023-08-20T03:04:51;14.47;;;13.17;;
74245;SDS011;62601;51.044;13.788;2023-08-20T03:07:11;15.50;;;14.10;;
74245;SDS011;62601;51.044;13.788;2023-08-20T03:09:31;15.00;;;13.80;;
74245;SDS011;62601;51.044;13.788;2023-08-20T03:11:51;15.33;;;14.00;;
74245;SDS011;62601;51.044;13.788;2023-08-20T03:14:11;14.93;;;13.43;;
74245;SDS011;62601;51.044;13.788;2023-08-20T03:16:31;14.97;;;13.63;;
74245;SDS011;62601;51.044;13.788;2023-08-20T03:18:51;14.40;;;13.30;;
74245;SDS011;62601;51.044;13.788;2023-08-20T03:21:11;15.30;;;13.73;;
74245;SDS011;62601;51.044;13.788;2023-08-20T03:23:32;14.07;;;13.03;;
74245;SDS011;62601;51.044;13.788;2023-08-20T03:25:52;15.20;;;13.90;;
74245;SDS011;62601;51.044;13.788;2023-08-20T03:28:12;14.27;;;13.07;;
74245;SDS011;62601;51.044;13.788;2023-08-20T03:30:32;15.03;;;13.83;;
74245;SDS011;62601;51.044;13.788;2023-08-20T03:32:55;14.00;;;12.90;;
74245;SDS011;62601;51.044;13.788;2023-08-20T03:35:15;14.10;;;12.90;;
74245;SDS011;62601;51.044;13.788;2023-08-20T03:37:35;15.03;;;13.73;;
74245;SDS011;62601;51.044;13.788;2023-08-20T03:39:56;15.13;;;13.93;;
74245;SDS011;62601;51.044;13.788;2023-08-20T03:42:16;13.80;;;12.70;;
74245;SDS011;62601;51.044;13.788;2023-08-20T03:44:36;15.13;;;13.83;;
74245;SDS011;62601;51.044;13.788;2023-08-20T03:46:56;15.60;;;14.03;;
74245;SDS011;62601;51.044;13.788;2023-08-20T03:49:16;14.50;;;13.40;;
74245;SDS011;62601;51.044;13.788;2023-08-20T03:51:36;13.43;;;12.43;;
74245;SDS011;62601;51.044;13.788;2023-08-20T03:53:56;14.43;;;13.33;;
74245;SDS011;62601;51.044;13.788;2023-08-20T03:56:17;15.20;;;13.93;;
74245;SDS011;62601;51.044;13.788;2023-08-20T03:58:37;15.70;;;14.20;;
74245;SDS011;62601;51.044;13.788;2023-08-20T04:00:57;14.40;;;13.30;;
74245;SDS011;62601;51.044;13.788;2023-08-20T04:03:17;15.00;;;13.80;;
74245;SDS011;62601;51.044;13.788;2023-08-20T04:05:37;14.10;;;12.90;;
74245;SDS011;62601;51.044;13.788;2023-08-20T04:07:57;15.43;;;14.07;;
74245;SDS011;62601;51.044;13.788;2023-08-20T04:10:17;14.87;;;13.37;;
74245;SDS011;62601;51.044;13.788;2023-08-20T04:12:38;15.50;;;13.40;;
74245;SDS011;62601;51.044;13.788;2023-08-20T04:14:58;16.03;;;14.40;;
74245;SDS011;62601;51.044;13.788;2023-08-20T04:17:18;14.90;;;13.60;;
74245;SDS011;62601;51.044;13.788;2023-08-20T04:19:38;14.93;;;13.63;;
74245;SDS011;62601;51.044;13.788;2023-08-20T04:21:58;15.97;;;14.67;;
74245;SDS011;62601;51.044;13.788;2023-08-20T04:24:18;15.10;;;13.83;;
74245;SDS011;62601;51.044;13.788;2023-08-20T04:26:38;16.10;;;14.63;;
74245;SDS011;62601;51.044;13.788;2023-08-20T04:28:59;15.27;;;13.87;;
74245;SDS011;62601;51.044;13.788;2023-08-20T04:31:19;14.87;;;13.67;;
74245;SDS011;62601;51.044;13.788;2023-08-20T04:33:39;13.97;;;12.77;;
74245;SDS011;62601;51.044;13.788;2023-08-20T04:35:59;15.70;;;14.17;;
74245;SDS011;62601;51.044;13.788;2023-08-20T04:38:19;14.07;;;13.07;;
74245;SDS011;62601;51.044;13.788;2023-08-20T04:40:39;14.83;;;13.53;;
74245;SDS011;62601;51.044;13.788;2023-08-20T04:43:00;14.30;;;13.20;;
74245;SDS011;62601;51.044;13.788;2023-08-20T04:45:20;14.87;;;13.67;;
74245;SDS011;62601;51.044;13.788;2023-08-20T04:47:40;15.17;;;13.97;;
74245;SDS011;62601;51.044;13.788;2023-08-20T04:50:00;14.60;;;13.30;;
74245;SDS011;62601;51.044;13.788;2023-08-20T04:52:20;13.80;;;12.80;;
74245;SDS011;62601;51.044;13.788;2023-08-20T04:54:40;15.30;;;13.90;;
74245;SDS011;62601;51.044;13.788;2023-08-20T04:57:00;15.67;;;14.07;;
74245;SDS011;62601;51.044;13.788;2023-08-20T04:59:20;16.90;;;15.40;;
74245;SDS011;62601;51.044;13.788;2023-08-20T05:01:41;14.70;;;13.50;;
74245;SDS011;62601;51.044;13.788;2023-08-20T05:04:01;13.67;;;12.47;;
74245;SDS011;62601;51.044;13.788;2023-08-20T05:06:21;18.03;;;13.80;;
74245;SDS011;62601;51.044;13.788;2023-08-20T05:08:42;15.20;;;14.00;;
74245;SDS011;62601;51.044;13.788;2023-08-20T05:11:02;13.37;;;12.30;;
74245;SDS011;62601;51.044;13.788;2023-08-20T05:13:22;14.87;;;13.60;;
74245;SDS011;62601;51.044;13.788;2023-08-20T05:15:43;13.67;;;12.37;;
74245;SDS011;62601;51.044;13.788;2023-08-20T05:18:03;12.73;;;11.53;;
74245;SDS011;62601;51.044;13.788;2023-08-20T05:20:23;13.60;;;12.17;;
74245;SDS011;62601;51.044;13.788;2023-08-20T05:22:43;12.70;;;11.60;;
74245;SDS011;62601;51.044;13.788;2023-08-20T05:25:03;12.37;;;11.20;;
74245;SDS011;62601;51.044;13.788;2023-08-20T05:27:23;12.43;;;11.43;;
74245;SDS011;62601;51.044;13.788;2023-08-20T05:29:43;12.07;;;10.87;;
74245;SDS011;62601;51.044;13.788;2023-08-20T05:32:04;11.63;;;10.57;;
74245;SDS011;62601;51.044;13.788;2023-08-20T05:34:24;14.40;;;10.70;;
74245;SDS011;62601;51.044;13.788;2023-08-20T05:36:44;10.37;;;9.37;;
74245;SDS011;62601;51.044;13.788;2023-08-20T05:39:04;11.27;;;10.23;;
74245;SDS011;62601;51.044;13.788;2023-08-20T05:41:24;12.30;;;10.03;;
74245;SDS011;62601;51.044;13.788;2023-08-20T05:43:44;11.03;;;10.10;;
74245;SDS011;62601;51.044;13.788;2023-08-20T05:46:04;11.27;;;9.97;;
74245;SDS011;62601;51.044;13.788;2023-08-20T05:48:24;11.40;;;10.30;;
74245;SDS011;62601;51.044;13.788;2023-08-20T05:50:44;11.33;;;10.40;;
74245;SDS011;62601;51.044;13.788;2023-08-20T05:53:05;11.00;;;10.00;;
74245;SDS011;62601;51.044;13.788;2023-08-20T05:55:25;9.73;;;8.87;;
74245;SDS011;62601;51.044;13.788;2023-08-20T05:57:45;11.03;;;10.13;;
74245;SDS011;62601;51.044;13.788;2023-08-20T06:00:05;11.07;;;10.07;;
74245;SDS011;62601;51.044;13.788;2023-08-20T06:02:25;11.33;;;10.13;;
74245;SDS011;62601;51.044;13.788;2023-08-20T06:04:45;10.77;;;9.77;;
74245;SDS011;62601;51.044;13.788;2023-08-20T06:07:05;11.37;;;10.27;;
74245;SDS011;62601;51.044;13.788;2023-08-20T06:09:26;11.87;;;10.83;;
74245;SDS011;62601;51.044;13.788;2023-08-20T06:11:46;11.37;;;10.30;;
74245;SDS011;62601;51.044;13.788;2023-08-20T06:14:06;10.57;;;9.50;;
74245;SDS011;62601;51.044;13.788;2023-08-20T06:16:26;10.27;;;9.50;;
74245;SDS011;62601;51.044;13.788;2023-08-20T06:18:46;11.30;;;10.20;;
74245;SDS011;62601;51.044;13.788;2023-08-20T06:21:06;12.27;;;10.60;;
74245;SDS011;62601;51.044;13.788;2023-08-20T06:23:26;10.37;;;9.33;;
74245;SDS011;62601;51.044;13.788;2023-08-20T06:25:46;10.57;;;9.53;;
74245;SDS011;62601;51.044;13.788;2023-08-20T06:28:08;10.67;;;9.57;;
74245;SDS011;62601;51.044;13.788;2023-08-20T06:30:28;10.80;;;9.80;;
74245;SDS011;62601;51.044;13.788;2023-08-20T06:32:48;11.83;;;9.73;;
74245;SDS011;62601;51.044;13.788;2023-08-20T06:35:08;11.43;;;10.53;;
74245;SDS011;62601;51.044;13.788;2023-08-20T06:37:28;12.33;;;9.80;;
74245;SDS011;62601;51.044;13.788;2023-08-20T06:39:48;10.53;;;9.63;;
74245;SDS011;62601;51.044;13.788;2023-08-20T06:42:08;11.40;;;10.40;;
74245;SDS011;62601;51.044;13.788;2023-08-20T06:44:28;11.27;;;10.27;;
74245;SDS011;62601;51.044;13.788;2023-08-20T06:46:49;10.70;;;9.90;;
74245;SDS011;62601;51.044;13.788;2023-08-20T06:49:09;10.93;;;9.80;;
74245;SDS011;62601;51.044;13.788;2023-08-20T06:51:29;11.17;;;10.07;;
74245;SDS011;62601;51.044;13.788;2023-08-20T06:53:49;11.23;;;10.13;;
74245;SDS011;62601;51.044;13.788;2023-08-20T06:56:09;10.80;;;9.90;;
74245;SDS011;62601;51.044;13.788;2023-08-20T06:58:30;11.10;;;10.20;;
74245;SDS011;62601;51.044;13.788;2023-08-20T07:00:50;13.90;;;10.40;;
74245;SDS011;62601;51.044;13.788;2023-08-20T07:03:10;11.53;;;10.20;;
74245;SDS011;62601;51.044;13.788;2023-08-20T07:05:30;11.77;;;10.23;;
74245;SDS011;62601;51.044;13.788;2023-08-20T07:07:50;12.03;;;10.50;;
74245;SDS011;62601;51.044;13.788;2023-08-20T07:10:10;11.83;;;10.47;;
74245;SDS011;62601;51.044;13.788;2023-08-20T07:12:30;11.07;;;10.10;;
74245;SDS011;62601;51.044;13.788;2023-08-20T07:14:50;11.30;;;10.30;;
74245;SDS011;62601;51.044;13.788;2023-08-20T07:17:11;11.40;;;10.23;;
74245;SDS011;62601;51.044;13.788;2023-08-20T07:19:31;10.87;;;10.03;;
74245;SDS011;62601;51.044;13.788;2023-08-20T07:21:51;12.27;;;11.07;;
74245;SDS011;62601;51.044;13.788;2023-08-20T07:24:11;11.70;;;10.70;;
74245;SDS011;62601;51.044;13.788;2023-08-20T07:26:31;10.93;;;10.00;;
74245;SDS011;62601;51.044;13.788;2023-08-20T07:28:51;11.70;;;10.60;;
74245;SDS011;62601;51.044;13.788;2023-08-20T07:31:11;12.50;;;10.63;;
74245;SDS011;62601;51.044;13.788;2023-08-20T07:33:31;11.00;;;9.80;;
74245;SDS011;62601;51.044;13.788;2023-08-20T07:35:51;11.80;;;10.80;;
74245;SDS011;62601;51.044;13.788;2023-08-20T07:38:11;11.93;;;10.90;;
74245;SDS011;62601;51.044;13.788;2023-08-20T07:40:32;11.30;;;10.10;;
74245;SDS011;62601;51.044;13.788;2023-08-20T07:42:52;11.30;;;10.40;;
74245;SDS011;62601;51.044;13.788;2023-08-20T07:45:12;11.67;;;10.47;;
74245;SDS011;62601;51.044;13.788;2023-08-20T07:47:32;11.70;;;10.50;;
74245;SDS011;62601;51.044;13.788;2023-08-20T07:49:52;11.40;;;10.40;;
74245;SDS011;62601;51.044;13.788;2023-08-20T07:52:12;10.90;;;10.00;;
74245;SDS011;62601;51.044;13.788;2023-08-20T07:54:32;10.70;;;9.90;;
74245;SDS011;62601;51.044;13.788;2023-08-20T07:56:52;12.17;;;11.17;;
74245;SDS011;62601;51.044;13.788;2023-08-20T07:59:13;11.53;;;10.40;;
74245;SDS011;62601;51.044;13.788;2023-08-20T08:01:33;12.07;;;10.97;;
74245;SDS011;62601;51.044;13.788;2023-08-20T08:03:53;11.73;;;10.67;;
74245;SDS011;62601;51.044;13.788;2023-08-20T08:06:13;13.00;;;10.70;;
74245;SDS011;62601;51.044;13.788;2023-08-20T08:08:33;11.17;;;10.30;;
74245;SDS011;62601;51.044;13.788;2023-08-20T08:10:53;11.63;;;10.30;;
74245;SDS011;62601;51.044;13.788;2023-08-20T08:13:14;12.00;;;11.00;;
74245;SDS011;62601;51.044;13.788;2023-08-20T08:15:34;11.63;;;10.43;;
74245;SDS011;62601;51.044;13.788;2023-08-20T08:17:55;15.30;;;14.00;;
74245;SDS011;62601;51.044;13.788;2023-08-20T08:20:15;17.50;;;15.80;;
74245;SDS011;62601;51.044;13.788;2023-08-20T08:22:35;12.57;;;11.53;;
74245;SDS011;62601;51.044;13.788;2023-08-20T08:24:55;11.80;;;10.80;;
74245;SDS011;62601;51.044;13.788;2023-08-20T08:27:15;11.97;;;10.83;;
74245;SDS011;62601;51.044;13.788;2023-08-20T08:29:35;13.30;;;10.57;;
74245;SDS011;62601;51.044;13.788;2023-08-20T08:31:55;10.93;;;9.93;;
74245;SDS011;62601;51.044;13.788;2023-08-20T08:34:15;11.20;;;10.20;;
74245;SDS011;62601;51.044;13.788;2023-08-20T08:36:35;11.70;;;10.60;;
74245;SDS011;62601;51.044;13.788;2023-08-20T08:38:56;10.73;;;9.73;;
74245;SDS011;62601;51.044;13.788;2023-08-20T08:41:16;10.17;;;9.37;;
74245;SDS011;62601;51.044;13.788;2023-08-20T08:43:37;11.40;;;10.50;;
74245;SDS011;62601;51.044;13.788;2023-08-20T08:45:57;11.20;;;10.20;;
74245;SDS011;62601;51.044;13.788;2023-08-20T08:48:17;13.77;;;10.47;;
74245;SDS011;62601;51.044;13.788;2023-08-20T08:50:37;11.40;;;10.40;;
74245;SDS011;62601;51.044;13.788;2023-08-20T08:52:57;10.70;;;9.60;;
74245;SDS011;62601;51.044;13.788;2023-08-20T08:55:18;10.93;;;9.83;;
74245;SDS011;62601;51.044;13.788;2023-08-20T08:57:38;10.87;;;9.90;;
74245;SDS011;62601;51.044;13.788;2023-08-20T08:59:58;10.67;;;9.73;;
74245;SDS011;62601;51.044;13.788;2023-08-20T09:02:18;10.60;;;9.50;;
74245;SDS011;62601;51.044;13.788;2023-08-20T09:04:39;10.53;;;9.67;;
74245;SDS011;62601;51.044;13.788;2023-08-20T09:06:59;9.83;;;9.13;;
74245;SDS011;62601;51.044;13.788;2023-08-20T09:09:20;10.70;;;9.53;;
74245;SDS011;62601;51.044;13.788;2023-08-20T09:11:40;12.60;;;11.40;;
74245;SDS011;62601;51.044;13.788;2023-08-20T09:14:00;14.83;;;13.47;;
74245;SDS011;62601;51.044;13.788;2023-08-20T09:16:23;18.40;;;16.90;;
74245;SDS011;62601;51.044;13.788;2023-08-20T09:18:49;12.27;;;11.17;;
74245;SDS011;62601;51.044;13.788;2023-08-20T09:21:10;11.97;;;10.80;;
74245;SDS011;62601;51.044;13.788;2023-08-20T09:23:30;10.93;;;9.93;;
74245;SDS011;62601;51.044;13.788;2023-08-20T09:25:50;12.07;;;10.97;;
74245;SDS011;62601;51.044;13.788;2023-08-20T09:28:13;14.10;;;12.90;;
74245;SDS011;62601;51.044;13.788;2023-08-20T09:30:33;14.30;;;13.10;;
74245;SDS011;62601;51.044;13.788;2023-08-20T09:33:12;13.97;;;12.57;;
74245;SDS011;62601;51.044;13.788;2023-08-20T09:35:32;14.17;;;12.77;;
74245;SDS011;62601;51.044;13.788;2023-08-20T09:37:58;12.57;;;11.47;;
74245;SDS011;62601;51.044;13.788;2023-08-20T09:40:18;13.83;;;12.70;;
74245;SDS011;62601;51.044;13.788;2023-08-20T09:42:38;13.23;;;12.13;;
74245;SDS011;62601;51.044;13.788;2023-08-20T09:44:58;13.83;;;12.80;;
74245;SDS011;62601;51.044;13.788;2023-08-20T09:47:20;14.00;;;12.80;;
74245;SDS011;62601;51.044;13.788;2023-08-20T09:49:41;12.90;;;11.80;;
74245;SDS011;62601;51.044;13.788;2023-08-20T09:52:03;14.10;;;12.70;;
74245;SDS011;62601;51.044;13.788;2023-08-20T09:57:03;12.57;;;11.40;;
74245;SDS011;62601;51.044;13.788;2023-08-20T09:59:23;13.60;;;12.40;;
74245;SDS011;62601;51.044;13.788;2023-08-20T10:01:44;12.77;;;11.50;;
74245;SDS011;62601;51.044;13.788;2023-08-20T10:04:04;13.33;;;12.00;;
74245;SDS011;62601;51.044;13.788;2023-08-20T10:06:25;13.83;;;12.50;;
74245;SDS011;62601;51.044;13.788;2023-08-20T10:08:46;13.13;;;12.00;;
74245;SDS011;62601;51.044;13.788;2023-08-20T10:11:06;12.37;;;11.20;;
74245;SDS011;62601;51.044;13.788;2023-08-20T10:13:27;13.00;;;11.80;;
74245;SDS011;62601;51.044;13.788;2023-08-20T10:15:47;12.90;;;11.80;;
74245;SDS011;62601;51.044;13.788;2023-08-20T10:18:08;13.10;;;11.90;;
74245;SDS011;62601;51.044;13.788;2023-08-20T10:20:28;12.47;;;11.37;;
74245;SDS011;62601;51.044;13.788;2023-08-20T10:22:49;12.17;;;11.17;;
74245;SDS011;62601;51.044;13.788;2023-08-20T10:25:11;12.50;;;11.40;;
74245;SDS011;62601;51.044;13.788;2023-08-20T10:27:31;12.73;;;11.63;;
74245;SDS011;62601;51.044;13.788;2023-08-20T10:29:53;12.00;;;11.10;;
74245;SDS011;62601;51.044;13.788;2023-08-20T10:32:13;12.83;;;11.73;;
74245;SDS011;62601;51.044;13.788;2023-08-20T10:34:33;12.97;;;11.77;;
74245;SDS011;62601;51.044;13.788;2023-08-20T10:36:55;12.00;;;10.93;;
74245;SDS011;62601;51.044;13.788;2023-08-20T10:39:21;11.87;;;10.97;;
74245;SDS011;62601;51.044;13.788;2023-08-20T10:41:41;11.00;;;10.07;;
74245;SDS011;62601;51.044;13.788;2023-08-20T10:44:01;11.57;;;10.57;;
74245;SDS011;62601;51.044;13.788;2023-08-20T10:46:22;12.63;;;10.67;;
74245;SDS011;62601;51.044;13.788;2023-08-20T10:48:43;12.03;;;11.03;;
74245;SDS011;62601;51.044;13.788;2023-08-20T10:51:45;12.67;;;11.53;;
74245;SDS011;62601;51.044;13.788;2023-08-20T10:56:22;10.77;;;9.77;;
74245;SDS011;62601;51.044;13.788;2023-08-20T10:58:43;11.23;;;9.90;;
74245;SDS011;62601;51.044;13.788;2023-08-20T11:03:52;11.33;;;10.43;;
74245;SDS011;62601;51.044;13.788;2023-08-20T11:06:13;12.00;;;11.00;;
74245;SDS011;62601;51.044;13.788;2023-08-20T11:08:33;11.20;;;10.10;;
74245;SDS011;62601;51.044;13.788;2023-08-20T11:10:53;10.50;;;9.60;;
74245;SDS011;62601;51.044;13.788;2023-08-20T11:13:13;11.43;;;10.43;;
74245;SDS011;62601;51.044;13.788;2023-08-20T11:15:33;9.17;;;8.37;;
74245;SDS011;62601;51.044;13.788;2023-08-20T11:17:54;9.87;;;9.07;;
74245;SDS011;62601;51.044;13.788;2023-08-20T11:20:14;10.13;;;9.33;;
74245;SDS011;62601;51.044;13.788;2023-08-20T11:22:34;22.47;;;9.40;;
74245;SDS011;62601;51.044;13.788;2023-08-20T11:24:55;10.10;;;9.20;;
74245;SDS011;62601;51.044;13.788;2023-08-20T11:27:15;9.67;;;8.77;;
74245;SDS011;62601;51.044;13.788;2023-08-20T11:29:35;10.20;;;9.33;;
74245;SDS011;62601;51.044;13.788;2023-08-20T11:31:55;10.30;;;9.40;;
74245;SDS011;62601;51.044;13.788;2023-08-20T11:34:16;9.20;;;8.50;;
74245;SDS011;62601;51.044;13.788;2023-08-20T11:36:37;9.60;;;8.83;;
74245;SDS011;62601;51.044;13.788;2023-08-20T11:38:58;9.80;;;9.00;;
74245;SDS011;62601;51.044;13.788;2023-08-20T11:41:21;9.30;;;8.43;;
74245;SDS011;62601;51.044;13.788;2023-08-20T11:43:44;9.07;;;8.17;;
74245;SDS011;62601;51.044;13.788;2023-08-20T11:46:04;10.13;;;8.17;;
74245;SDS011;62601;51.044;13.788;2023-08-20T11:48:24;9.73;;;8.93;;
74245;SDS011;62601;51.044;13.788;2023-08-20T11:50:44;9.87;;;8.40;;
74245;SDS011;62601;51.044;13.788;2023-08-20T11:53:04;9.03;;;8.33;;
74245;SDS011;62601;51.044;13.788;2023-08-20T11:55:24;10.13;;;9.33;;
74245;SDS011;62601;51.044;13.788;2023-08-20T11:57:49;12.07;;;11.07;;
74245;SDS011;62601;51.044;13.788;2023-08-20T12:00:09;8.90;;;8.30;;
74245;SDS011;62601;51.044;13.788;2023-08-20T12:02:43;8.87;;;8.07;;
74245;SDS011;62601;51.044;13.788;2023-08-20T12:05:03;9.00;;;8.27;;
74245;SDS011;62601;51.044;13.788;2023-08-20T12:07:26;8.67;;;7.97;;
74245;SDS011;62601;51.044;13.788;2023-08-20T12:09:47;8.10;;;7.40;;
74245;SDS011;62601;51.044;13.788;2023-08-20T12:12:07;8.07;;;7.47;;
74245;SDS011;62601;51.044;13.788;2023-08-20T12:14:27;8.80;;;8.00;;
74245;SDS011;62601;51.044;13.788;2023-08-20T12:16:47;8.10;;;7.47;;
74245;SDS011;62601;51.044;13.788;2023-08-20T12:19:08;10.87;;;7.90;;
74245;SDS011;62601;51.044;13.788;2023-08-20T12:21:28;8.10;;;7.50;;
74245;SDS011;62601;51.044;13.788;2023-08-20T12:23:48;7.70;;;7.10;;
74245;SDS011;62601;51.044;13.788;2023-08-20T12:26:08;7.67;;;7.13;;
74245;SDS011;62601;51.044;13.788;2023-08-20T12:28:28;8.30;;;7.70;;
74245;SDS011;62601;51.044;13.788;2023-08-20T12:30:51;8.00;;;7.50;;
74245;SDS011;62601;51.044;13.788;2023-08-20T12:33:11;7.17;;;6.77;;
74245;SDS011;62601;51.044;13.788;2023-08-20T12:35:34;7.90;;;7.20;;
74245;SDS011;62601;51.044;13.788;2023-08-20T12:37:55;7.27;;;6.87;;
74245;SDS011;62601;51.044;13.788;2023-08-20T12:40:15;7.50;;;7.00;;
74245;SDS011;62601;51.044;13.788;2023-08-20T12:42:35;7.20;;;6.70;;
74245;SDS011;62601;51.044;13.788;2023-08-20T12:44:55;7.47;;;6.97;;
74245;SDS011;62601;51.044;13.788;2023-08-20T12:47:15;8.63;;;7.97;;
74245;SDS011;62601;51.044;13.788;2023-08-20T12:49:35;7.40;;;6.90;;
74245;SDS011;62601;51.044;13.788;2023-08-20T12:51:55;7.90;;;7.40;;
74245;SDS011;62601;51.044;13.788;2023-08-20T12:54:15;7.90;;;7.40;;
74245;SDS011;62601;51.044;13.788;2023-08-20T12:56:35;7.93;;;7.43;;
74245;SDS011;62601;51.044;13.788;2023-08-20T12:58:56;8.63;;;8.03;;
74245;SDS011;62601;51.044;13.788;2023-08-20T13:01:17;7.47;;;7.07;;
74245;SDS011;62601;51.044;13.788;2023-08-20T13:03:37;7.33;;;6.83;;
74245;SDS011;62601;51.044;13.788;2023-08-20T13:05:57;7.60;;;6.90;;
74245;SDS011;62601;51.044;13.788;2023-08-20T13:08:17;7.57;;;7.10;;
74245;SDS011;62601;51.044;13.788;2023-08-20T13:10:41;7.73;;;7.23;;
74245;SDS011;62601;51.044;13.788;2023-08-20T13:13:01;7.87;;;7.20;;
74245;SDS011;62601;51.044;13.788;2023-08-20T13:15:22;7.63;;;7.13;;
74245;SDS011;62601;51.044;13.788;2023-08-20T13:17:42;7.80;;;7.30;;
74245;SDS011;62601;51.044;13.788;2023-08-20T13:20:03;8.03;;;7.60;;
74245;SDS011;62601;51.044;13.788;2023-08-20T13:22:23;8.30;;;7.80;;
74245;SDS011;62601;51.044;13.788;2023-08-20T13:24:43;7.90;;;7.40;;
74245;SDS011;62601;51.044;13.788;2023-08-20T13:27:03;7.17;;;6.73;;
74245;SDS011;62601;51.044;13.788;2023-08-20T13:29:23;7.87;;;7.27;;
74245;SDS011;62601;51.044;13.788;2023-08-20T13:31:43;8.40;;;7.90;;
74245;SDS011;62601;51.044;13.788;2023-08-20T13:34:03;7.33;;;6.83;;
74245;SDS011;62601;51.044;13.788;2023-08-20T13:36:23;7.30;;;6.70;;
74245;SDS011;62601;51.044;13.788;2023-08-20T13:38:44;7.90;;;7.13;;
74245;SDS011;62601;51.044;13.788;2023-08-20T13:41:04;7.40;;;6.70;;
74245;SDS011;62601;51.044;13.788;2023-08-20T13:43:24;7.90;;;7.27;;
74245;SDS011;62601;51.044;13.788;2023-08-20T13:45:44;7.53;;;6.93;;
74245;SDS011;62601;51.044;13.788;2023-08-20T13:48:04;8.20;;;7.60;;